北京 の空港の天気 - METARとTAF

北京首都国際空港 ( ZBAA / PEK ) - 中国 北京市
飛行場実況気象(Metar)
観測時間06/18 15:30 CST (06/18 07:30 UTC)
風向・風速南東 3m/s
視程10km以上
天気現象
なし
気温33℃
湿度46%
気圧999hPa
METARZBAA 180730Z 14003MPS 080V180 CAVOK 33/20 Q0999 NOSIG
過去の天気等 Google飛行場航空写真 Wunderground天気予報

過去48時間のMETAR

飛行場予報(TAF)
発表時間: 6/18 11:30 CST (6/18 03:30 UTC)
予報対象時間: 18日14時 CST ~ 19日14時 CST
風向・風速南東 4m/s
視程4000m
天気現象もや
なし
18日17時 CST ~ 18日23時 CST に一時的に
天気現象雷雨
全天の4割程度の積乱雲 雲底高度 1220m
TAF ZBAA 180330Z 1806/1906 14004MPS 4000 BR NSC TX31/1807Z TN21/1821Z
TEMPO 1809/1815 TSRA SCT040CB